Time;durP1;ratioP1;P1;durP2;ratioP2;P2;SDS_P1;SDS_P2;PMS_P1;PMS_P2;Temp;Humidity;BMP_temperature;BMP_pressure;BME280_temperature;BME280_humidity;BME280_pressure;Samples;Min_cycle;Max_cycle;Signal;HPM_P1;HPM_P2
2021/12/09 00:00:18;;;;;;;20.60;11.85;;;;;;;-8.30;72.81;102499.78;5094748;28;20478;-61
2021/12/09 00:02:51;;;;;;;23.30;13.60;;;;;;;-7.92;73.65;102555.75;5096449;28;20035;-60
2021/12/09 00:05:17;;;;;;;18.77;13.07;;;;;;;-7.98;73.12;102545.41;5115482;28;20444;-60
2021/12/09 00:07:43;;;;;;;17.25;11.95;;;;;;;-7.95;72.83;102546.28;5115121;28;20027;-62
2021/12/09 00:10:11;;;;;;;18.73;13.25;;;;;;;-8.07;73.13;102511.81;5114813;28;20032;-59
2021/12/09 00:12:39;;;;;;;20.58;11.95;;;;;;;-7.79;72.81;102560.06;5096150;28;20031;-63
2021/12/09 00:15:06;;;;;;;20.20;13.70;;;;;;;-7.78;73.19;102558.34;5080180;28;20039;-59
2021/12/09 00:17:32;;;;;;;21.55;12.55;;;;;;;-7.72;72.95;102561.75;5115275;28;20397;-59
2021/12/09 00:19:58;;;;;;;21.00;12.37;;;;;;;-7.72;73.25;102553.13;5114560;28;20142;-61
2021/12/09 00:22:25;;;;;;;19.98;13.43;;;;;;;-7.61;72.29;102561.72;5114608;28;20044;-60
2021/12/09 00:24:51;;;;;;;19.70;12.10;;;;;;;-7.68;72.36;102554.84;5114727;28;20043;-61
2021/12/09 00:27:16;;;;;;;17.03;12.57;;;;;;;-7.79;72.13;102528.16;5114709;28;20048;-60
2021/12/09 00:29:42;;;;;;;20.50;13.50;;;;;;;-7.75;72.81;102538.50;5115159;28;20035;-62
2021/12/09 00:32:08;;;;;;;24.93;13.90;;;;;;;-7.57;72.32;102569.47;5114872;28;20394;-61
2021/12/09 00:34:36;;;;;;;21.67;13.10;;;;;;;-7.57;72.34;102563.44;5114737;28;20067;-62
2021/12/09 00:39:49;;;;;;;20.95;14.18;;;;;;;-7.57;72.39;102558.25;5114203;28;20035;-61
2021/12/09 00:42:15;;;;;;;14.65;10.68;;;;;;;-7.58;72.76;102556.53;5114439;28;20127;-60
2021/12/09 00:44:40;;;;;;;17.93;12.27;;;;;;;-7.56;72.70;102544.47;5114409;28;20445;-62
2021/12/09 00:47:31;;;;;;;18.88;14.25;;;;;;;-7.56;72.45;102537.56;5114317;28;20046;-59
2021/12/09 00:49:57;;;;;;;17.87;12.20;;;;;;;-7.44;72.76;102551.34;5114139;28;20044;-61
2021/12/09 00:52:26;;;;;;;19.93;12.83;;;;;;;-7.39;72.74;102557.38;5096083;28;20046;-61
2021/12/09 00:54:52;;;;;;;20.90;11.85;;;;;;;-7.46;72.62;102548.75;5114205;28;20036;-60
2021/12/09 00:57:18;;;;;;;20.00;13.23;;;;;;;-7.42;72.55;102553.06;5114689;28;20092;-60
2021/12/09 00:59:44;;;;;;;22.10;11.87;;;;;;;-7.39;72.55;102547.88;5113909;28;20096;-61
2021/12/09 01:02:10;;;;;;;24.33;13.20;;;;;;;-7.36;73.07;102547.00;5114163;28;20558;-60
2021/12/09 01:04:37;;;;;;;22.63;13.45;;;;;;;-7.35;73.01;102554.75;5113690;28;20032;-62
2021/12/09 01:07:04;;;;;;;22.67;13.95;;;;;;;-7.34;72.12;102546.13;5114047;28;20035;-62
2021/12/09 01:09:30;;;;;;;24.25;13.15;;;;;;;-7.42;72.38;102531.50;5114034;28;20032;-61
2021/12/09 01:11:56;;;;;;;22.98;15.07;;;;;;;-7.36;72.56;102539.22;5113372;28;20036;-61
2021/12/09 01:14:21;;;;;;;20.63;10.97;;;;;;;-7.34;72.21;102540.94;5095644;28;20505;-60
2021/12/09 01:16:47;;;;;;;21.27;12.90;;;;;;;-7.29;72.56;102548.69;5113606;28;20130;-60
2021/12/09 01:19:15;;;;;;;28.03;14.87;;;;;;;-7.28;72.69;102545.22;5094918;28;20051;-62
2021/12/09 01:21:41;;;;;;;19.52;11.77;;;;;;;-7.21;72.27;102552.13;5113692;28;20093;-61
2021/12/09 01:24:07;;;;;;;19.03;11.63;;;;;;;-7.25;72.34;102540.91;5113602;28;20067;-60
2021/12/09 01:26:33;;;;;;;21.20;12.70;;;;;;;-7.28;73.23;102538.34;5113362;28;20042;-61
2021/12/09 01:29:04;;;;;;;24.90;14.30;;;;;;;-7.24;72.86;102537.44;5113280;28;20466;-60
2021/12/09 01:31:35;;;;;;;20.02;13.57;;;;;;;-7.27;73.49;102545.22;5113162;28;20501;-61
2021/12/09 01:34:03;;;;;;;24.27;14.88;;;;;;;-7.34;73.34;102550.44;5113404;28;20071;-60
2021/12/09 01:36:32;;;;;;;25.95;16.58;;;;;;;-7.50;73.42;102521.19;5113372;28;20066;-61
2021/12/09 01:38:59;;;;;;;22.92;14.18;;;;;;;-7.41;73.20;102549.59;5113403;28;20032;-62
2021/12/09 01:41:25;;;;;;;33.05;19.40;;;;;;;-7.44;73.32;102531.50;5113222;28;20482;-60
2021/12/09 01:43:51;;;;;;;52.03;27.42;;;;;;;-7.45;72.95;102540.13;5112868;28;20031;-60
2021/12/09 01:46:20;;;;;;;44.43;25.37;;;;;;;-7.58;72.29;102543.59;5112789;28;20062;-61
2021/12/09 01:48:47;;;;;;;;;;;;;;;-7.58;72.09;102546.19;5113597;28;20618;-60
2021/12/09 01:51:13;;;;;;;49.78;27.92;;;;;;;-7.82;72.68;102523.81;5113019;28;19923;-59
2021/12/09 01:53:39;;;;;;;42.33;23.77;;;;;;;-7.76;72.88;102535.91;5112944;28;20031;-60
2021/12/09 01:56:08;;;;;;;38.35;22.75;;;;;;;-7.71;72.68;102549.69;5112819;28;20035;-60
2021/12/09 01:58:34;;;;;;;33.53;22.20;;;;;;;-7.63;72.81;102559.16;5112728;28;20115;-60
2021/12/09 02:01:00;;;;;;;31.50;20.17;;;;;;;-7.63;73.23;102563.47;5112930;28;20075;-58
2021/12/09 02:03:26;;;;;;;36.42;20.83;;;;;;;-7.61;72.79;102552.25;5113462;28;20473;-60
2021/12/09 02:05:53;;;;;;;37.30;20.60;;;;;;;-7.38;72.40;102574.63;5113031;28;20032;-61
2021/12/09 02:08:19;;;;;;;34.75;22.13;;;;;;;-7.34;72.95;102561.66;5094595;28;20028;-60
2021/12/09 02:10:46;;;;;;;38.53;21.23;;;;;;;-7.22;72.63;102571.13;5112522;28;20044;-61
2021/12/09 02:13:13;;;;;;;40.72;23.25;;;;;;;-7.31;71.96;102561.63;5112388;28;20471;-61
2021/12/09 02:15:40;;;;;;;36.28;22.80;;;;;;;-7.26;71.77;102570.25;5112762;28;20046;-61
2021/12/09 02:18:11;;;;;;;36.42;22.60;;;;;;;-7.30;72.70;102558.19;5113374;28;20564;-61
2021/12/09 02:20:40;;;;;;;36.10;23.17;;;;;;;-7.23;72.56;102565.09;5112864;28;20060;-61
2021/12/09 02:23:30;;;;;;;42.83;22.63;;;;;;;-7.34;72.61;102555.63;5112091;28;20043;-59
2021/12/09 02:25:56;;;;;;;38.87;20.90;;;;;;;-7.31;72.10;102572.00;5112757;28;20044;-60
2021/12/09 02:28:22;;;;;;;34.90;21.00;;;;;;;-7.51;72.03;102560.88;5112597;28;20035;-61
2021/12/09 02:30:47;;;;;;;37.20;22.30;;;;;;;-7.53;72.72;102567.75;5112423;28;20375;-60
2021/12/09 02:33:13;;;;;;;37.73;22.63;;;;;;;-7.65;73.13;102560.03;5112518;28;20118;-60
2021/12/09 02:35:38;;;;;;;40.40;22.50;;;;;;;-7.65;72.84;102560.03;5112396;28;20092;-60
2021/12/09 02:38:05;;;;;;;34.80;21.47;;;;;;;-7.64;73.17;102565.19;5112320;28;20093;-60
2021/12/09 02:40:33;;;;;;;36.10;22.75;;;;;;;-7.63;72.35;102564.31;5112107;28;20067;-60
2021/12/09 02:42:58;;;;;;;36.83;22.67;;;;;;;-7.80;72.86;102548.00;5112346;28;20168;-60
2021/12/09 02:45:24;;;;;;;39.67;23.03;;;;;;;-7.92;72.95;102530.75;5112441;28;20040;-61
2021/12/09 02:47:49;;;;;;;37.40;23.67;;;;;;;-7.94;72.79;102529.88;5112409;28;20040;-59
2021/12/09 02:50:15;;;;;;;42.53;24.37;;;;;;;-7.73;72.68;102579.88;5112571;28;20165;-60
2021/12/09 02:52:40;;;;;;;44.03;24.20;;;;;;;-7.75;73.29;102574.69;5113102;28;20040;-60
2021/12/09 02:55:06;;;;;;;40.70;24.90;;;;;;;-8.16;73.45;102508.38;5112485;28;20184;-60
2021/12/09 02:57:32;;;;;;;45.15;26.00;;;;;;;-8.03;73.86;102519.56;5112290;28;20087;-62
2021/12/09 02:59:57;;;;;;;42.23;23.90;;;;;;;-7.76;73.48;102572.13;5112468;28;20134;-61
2021/12/09 03:02:23;;;;;;;45.73;26.20;;;;;;;-7.75;73.14;102573.84;5112142;28;20040;-60
2021/12/09 03:04:52;;;;;;;40.17;23.00;;;;;;;-7.69;73.36;102585.03;5112018;28;20482;-60
2021/12/09 03:07:24;;;;;;;;;;;;;;;-7.63;73.38;102589.34;5112551;28;20485;-60
2021/12/09 03:09:54;;;;;;;38.03;24.02;;;;;;;-7.70;73.75;102587.63;5112177;28;19922;-58
2021/12/09 03:12:29;;;;;;;39.30;21.67;;;;;;;-7.81;73.65;102585.94;5112351;28;20036;-60
2021/12/09 03:14:55;;;;;;;39.65;23.33;;;;;;;-7.83;73.66;102576.41;5112239;28;20036;-60
2021/12/09 03:17:21;;;;;;;36.33;21.77;;;;;;;-7.65;74.37;102591.06;5112208;28;20154;-59
2021/12/09 03:19:49;;;;;;;36.05;23.65;;;;;;;-7.46;73.57;102592.75;5111615;28;20056;-60
2021/12/09 03:22:15;;;;;;;39.88;22.30;;;;;;;-7.37;73.41;102597.91;5112432;28;20051;-60
2021/12/09 03:24:42;;;;;;;36.17;21.77;;;;;;;-7.71;73.46;102529.00;5111833;28;20050;-62
2021/12/09 03:27:08;;;;;;;37.15;19.70;;;;;;;-7.31;73.23;102591.84;5111937;28;20063;-59
2021/12/09 03:29:34;;;;;;;29.10;17.42;;;;;;;-7.31;73.20;102603.06;5111660;28;20039;-60
2021/12/09 03:32:06;;;;;;;26.65;17.23;;;;;;;-7.36;73.18;102591.88;5111819;28;20135;-61
2021/12/09 03:34:33;;;;;;;28.98;18.08;;;;;;;-7.30;73.28;102609.09;5114311;28;20046;-60
2021/12/09 03:37:01;;;;;;;23.98;16.15;;;;;;;-7.61;72.86;102551.38;5115334;28;20372;-60
2021/12/09 03:39:32;;;;;;;20.75;15.55;;;;;;;-7.32;73.66;102614.28;5115405;28;20401;-60
2021/12/09 03:41:58;;;;;;;21.38;12.15;;;;;;;-7.33;72.95;102606.53;5115552;28;20031;-61
2021/12/09 03:44:24;;;;;;;26.77;15.68;;;;;;;-7.50;73.27;102591.06;5115548;28;20070;-61
2021/12/09 03:46:52;;;;;;;20.20;12.73;;;;;;;-7.59;73.32;102585.88;5097163;28;20482;-61
2021/12/09 03:49:19;;;;;;;21.85;12.57;;;;;;;-7.60;73.29;102600.53;5115233;28;20050;-60
2021/12/09 03:51:45;;;;;;;22.05;13.93;;;;;;;-7.68;74.06;102609.19;5115503;28;20040;-60
2021/12/09 03:54:11;;;;;;;19.23;13.47;;;;;;;-8.05;73.94;102565.25;5115071;28;20390;-61
2021/12/09 03:56:38;;;;;;;26.63;14.32;;;;;;;-7.90;74.45;102616.94;5115153;28;20542;-61
2021/12/09 03:59:06;;;;;;;24.05;14.77;;;;;;;-7.99;74.72;102616.94;5115268;28;20035;-59
2021/12/09 04:01:33;;;;;;;20.50;14.15;;;;;;;-8.19;74.73;102595.38;5114728;28;20035;-62
2021/12/09 04:03:59;;;;;;;25.20;14.90;;;;;;;-8.26;75.01;102604.00;5115190;28;20044;-60
2021/12/09 04:06:24;;;;;;;20.83;13.35;;;;;;;-8.18;75.26;102626.41;5115249;28;20501;-60
2021/12/09 04:08:50;;;;;;;21.43;13.87;;;;;;;-8.45;75.62;102596.25;5115146;28;20040;-65
2021/12/09 04:11:17;;;;;;;27.07;15.63;;;;;;;-8.31;76.14;102623.81;5115470;28;20036;-64
2021/12/09 04:13:43;;;;;;;24.98;14.77;;;;;;;-8.42;75.74;102610.91;5115056;28;20043;-61
2021/12/09 04:16:09;;;;;;;22.47;13.57;;;;;;;-8.42;76.48;102631.56;5115424;28;20058;-63
2021/12/09 04:18:37;;;;;;;20.70;14.15;;;;;;;-8.57;76.70;102616.91;5114886;28;20031;-60
2021/12/09 04:21:04;;;;;;;24.67;15.50;;;;;;;-8.55;76.75;102637.56;5115150;28;20078;-60
2021/12/09 04:23:30;;;;;;;21.65;14.23;;;;;;;-8.62;76.82;102628.94;5096775;28;20043;-63
2021/12/09 04:25:57;;;;;;;21.70;13.60;;;;;;;-9.39;77.16;102526.25;5096574;28;20084;-61
2021/12/09 04:28:22;;;;;;;25.10;15.07;;;;;;;-8.65;77.35;102647.03;5096764;28;20514;-63
2021/12/09 04:30:48;;;;;;;25.97;15.00;;;;;;;-8.69;77.51;102642.69;5114634;28;20047;-61
2021/12/09 04:33:16;;;;;;;25.30;15.80;;;;;;;-9.02;77.45;102594.38;5114916;28;20043;-59
2021/12/09 04:35:42;;;;;;;27.13;16.23;;;;;;;-8.92;77.95;102618.53;5114966;28;20024;-60
2021/12/09 04:38:07;;;;;;;27.70;14.13;;;;;;;-8.89;78.04;102634.03;5114415;28;20494;-62
2021/12/09 04:40:33;;;;;;;25.17;14.47;;;;;;;-8.83;78.27;102634.03;5114307;28;20092;-60
2021/12/09 04:43:00;;;;;;;25.83;14.73;;;;;;;-8.91;78.03;102633.16;5114299;28;20032;-63
2021/12/09 04:45:28;;;;;;;21.35;13.45;;;;;;;-8.93;78.47;102621.97;5113495;28;20035;-62
2021/12/09 04:47:53;;;;;;;23.75;15.20;;;;;;;-8.88;77.85;102641.78;5114253;28;20130;-61
2021/12/09 04:50:19;;;;;;;27.80;14.27;;;;;;;-8.98;78.03;102639.97;5095860;28;20251;-59
2021/12/09 04:52:45;;;;;;;57.45;32.22;;;;;;;-8.96;78.54;102658.06;5114275;28;20039;-61
2021/12/09 04:55:11;;;;;;;24.83;16.70;;;;;;;-9.15;77.74;102627.00;5096130;28;20078;-61
2021/12/09 04:57:38;;;;;;;26.27;15.07;;;;;;;-9.05;77.82;102656.31;5096092;28;20108;-60
2021/12/09 05:00:08;;;;;;;28.58;15.07;;;;;;;-9.22;77.41;102634.72;5113809;28;20062;-62
2021/12/09 05:05:05;;;;;;;36.58;22.35;;;;;;;-9.41;78.02;102607.94;5113564;28;20486;-60
2021/12/09 05:07:31;;;;;;;28.93;17.53;;;;;;;-9.22;78.42;102656.22;5113629;28;20031;-62
2021/12/09 05:09:56;;;;;;;29.83;16.20;;;;;;;-9.37;78.04;102632.91;5113616;28;20624;-62
2021/12/09 05:12:22;;;;;;;29.10;16.90;;;;;;;-9.26;78.39;102658.75;5113640;28;20031;-61
2021/12/09 05:14:49;;;;;;;22.13;16.33;;;;;;;-9.37;78.17;102648.38;5113487;28;20031;-61
2021/12/09 05:17:16;;;;;;;25.75;15.90;;;;;;;-9.32;78.29;102657.00;5112875;28;20038;-62
2021/12/09 05:19:44;;;;;;;31.77;17.23;;;;;;;-9.65;78.42;102602.63;5113827;28;20055;-60
2021/12/09 05:22:11;;;;;;;30.90;17.77;;;;;;;-9.49;78.30;102633.69;5095514;28;20112;-60
2021/12/09 05:24:37;;;;;;;23.20;15.73;;;;;;;-9.59;78.37;102633.59;5095134;28;20385;-61
2021/12/09 05:27:05;;;;;;;26.90;16.92;;;;;;;-9.49;78.45;102635.41;5113486;28;20058;-61
2021/12/09 05:29:38;;;;;;;28.83;16.90;;;;;;;-9.49;78.95;102638.00;5113954;28;20055;-60
2021/12/09 05:32:07;;;;;;;32.22;19.25;;;;;;;-9.39;78.95;102663.84;5113516;28;20035;-60
2021/12/09 05:34:44;;;;;;;25.85;16.67;;;;;;;-9.39;78.56;102650.09;5114178;28;20600;-61
2021/12/09 05:37:13;;;;;;;30.05;19.08;;;;;;;-9.30;78.90;102665.63;5113118;28;20032;-60
2021/12/09 05:39:39;;;;;;;;;;;;;;;-9.21;78.33;102678.59;5113380;28;20028;-64
2021/12/09 05:42:07;;;;;;;24.27;15.87;;;;;;;-9.20;78.51;102679.47;5113267;28;20508;-69
2021/12/09 05:44:34;;;;;;;32.22;19.33;;;;;;;-9.20;78.52;102675.16;5111604;28;20036;-62
2021/12/09 05:47:02;;;;;;;27.17;16.35;;;;;;;-9.17;78.64;102670.00;5112790;28;20050;-66
2021/12/09 05:49:29;;;;;;;26.60;18.27;;;;;;;-9.03;78.43;102676.97;5112749;28;20111;-59
2021/12/09 05:51:55;;;;;;;24.20;14.38;;;;;;;-8.98;78.17;102685.59;5112542;28;20042;-67
2021/12/09 05:54:20;;;;;;;25.03;15.50;;;;;;;-9.01;78.03;102663.19;5112995;28;20039;-70
2021/12/09 05:56:46;;;;;;;26.73;16.80;;;;;;;-8.96;77.78;102669.28;5112217;28;20038;-68
2021/12/09 05:59:12;;;;;;;29.10;16.37;;;;;;;-8.94;78.15;102677.03;5112843;28;20036;-70
2021/12/09 06:01:39;;;;;;;26.80;15.83;;;;;;;-9.01;77.77;102683.00;5112622;28;20039;-68
2021/12/09 06:04:09;;;;;;;31.63;17.13;;;;;;;-8.95;78.02;102686.50;5112602;28;20035;-75
2021/12/09 06:06:42;;;;;;;21.48;14.57;;;;;;;-8.95;78.01;102686.50;5112418;28;20027;-74
2021/12/09 06:09:09;;;;;;;30.40;17.42;;;;;;;-8.96;78.31;102681.28;5112945;28;20039;-73
2021/12/09 06:11:40;;;;;;;22.48;15.13;;;;;;;-9.03;77.92;102676.97;5112919;28;20405;-74
2021/12/09 06:14:09;;;;;;;22.70;14.65;;;;;;;-10.03;78.53;102524.19;5112467;28;20375;-71
2021/12/09 06:16:37;;;;;;;28.88;18.98;;;;;;;-9.14;78.18;102687.22;5094186;28;20115;-68
2021/12/09 06:19:08;;;;;;;33.07;18.40;;;;;;;-9.10;78.29;102696.72;5111258;28;20087;-68
2021/12/09 06:21:40;;;;;;;32.20;17.08;;;;;;;-9.16;78.35;102696.69;5094221;28;20502;-67
2021/12/09 06:24:09;;;;;;;27.87;15.27;;;;;;;-9.24;78.22;102688.91;5111981;28;20038;-68
2021/12/09 06:26:37;;;;;;;28.90;15.65;;;;;;;-9.17;78.49;102706.16;5111413;28;20398;-68
2021/12/09 06:29:05;;;;;;;22.65;16.08;;;;;;;-9.21;78.54;102706.13;5090591;28;20398;-68
2021/12/09 06:31:31;;;;;;;21.65;14.70;;;;;;;-9.30;78.13;102704.31;5111321;28;20043;-71
2021/12/09 06:33:56;;;;;;;30.90;18.80;;;;;;;-9.61;77.67;102656.81;5111602;28;20074;-70
2021/12/09 06:36:22;;;;;;;31.20;21.23;;;;;;;-9.49;78.22;102684.44;5112223;28;20039;-71
2021/12/09 06:38:48;;;;;;;40.93;25.83;;;;;;;-9.43;77.96;102702.53;5112114;28;20116;-71
2021/12/09 06:41:13;;;;;;;41.57;21.87;;;;;;;-9.41;77.87;102712.00;5111827;28;20406;-72
2021/12/09 06:43:42;;;;;;;34.13;19.60;;;;;;;-9.52;77.92;102702.47;5111751;28;20027;-70
2021/12/09 06:46:09;;;;;;;26.30;16.92;;;;;;;-9.54;77.93;102711.88;5111820;28;20084;-69
2021/12/09 06:48:35;;;;;;;29.13;17.65;;;;;;;-9.63;78.19;102714.38;5111456;28;20031;-71
2021/12/09 06:51:05;;;;;;;29.15;17.55;;;;;;;-9.52;77.98;102738.56;5112800;28;20398;-71
2021/12/09 06:53:32;;;;;;;26.23;17.85;;;;;;;-9.65;78.40;102716.09;5093906;28;20030;-70
2021/12/09 06:55:58;;;;;;;30.83;17.55;;;;;;;-9.52;78.26;102738.56;5112032;28;20048;-65
2021/12/09 06:58:25;;;;;;;33.47;17.90;;;;;;;-9.50;77.90;102736.88;5111825;28;20035;-73
2021/12/09 07:00:54;;;;;;;26.23;16.58;;;;;;;-9.58;77.84;102728.19;5093244;28;20055;-65
2021/12/09 07:03:21;;;;;;;37.85;20.55;;;;;;;-9.58;78.24;102731.63;5093680;28;20114;-65
2021/12/09 07:05:49;;;;;;;48.40;25.30;;;;;;;-9.72;78.07;102723.78;5112013;28;20051;-71
2021/12/09 07:08:14;;;;;;;41.88;24.65;;;;;;;-9.64;77.95;102748.75;5112434;28;20038;-72
2021/12/09 07:10:40;;;;;;;44.20;26.50;;;;;;;-9.65;77.90;102741.88;5116039;28;20493;-71
2021/12/09 07:13:06;;;;;;;43.93;26.90;;;;;;;-9.61;77.67;102748.78;5096217;28;20097;-71
2021/12/09 07:15:32;;;;;;;61.20;34.13;;;;;;;-9.66;77.79;102742.72;5097007;28;20043;-73
2021/12/09 07:17:58;;;;;;;44.28;23.48;;;;;;;-9.71;77.64;102743.56;5116954;28;20031;-71
2021/12/09 07:20:29;;;;;;;45.50;29.52;;;;;;;-9.60;77.76;102761.69;5117065;28;20083;-74
2021/12/09 07:22:55;;;;;;;56.30;32.95;;;;;;;-9.65;77.62;102752.19;5101314;28;20040;-75
2021/12/09 07:25:23;;;;;;;50.25;27.40;;;;;;;-9.77;77.69;102732.34;5120598;28;20123;-68
2021/12/09 07:27:48;;;;;;;53.30;29.38;;;;;;;-9.69;77.84;102741.00;5098131;28;20100;-68
2021/12/09 07:30:16;;;;;;;52.40;29.13;;;;;;;-9.60;77.48;102755.66;5116735;28;20035;-69
2021/12/09 07:32:43;;;;;;;57.33;32.60;;;;;;;-9.72;77.41;102736.66;5116458;28;20122;-63
2021/12/09 07:35:09;;;;;;;55.13;32.75;;;;;;;-9.60;77.44;102755.66;5115471;28;20031;-67
2021/12/09 07:37:37;;;;;;;62.80;35.65;;;;;;;-9.61;77.59;102753.94;5115465;28;20038;-66
2021/12/09 07:40:08;;;;;;;78.50;44.25;;;;;;;-9.93;77.41;102705.53;5096975;28;20406;-68
2021/12/09 07:42:35;;;;;;;69.50;38.65;;;;;;;-9.52;77.12;102772.09;5115215;28;20035;-74
2021/12/09 07:45:01;;;;;;;59.78;38.10;;;;;;;-9.63;77.02;102765.97;5115628;28;20032;-74
2021/12/09 07:47:28;;;;;;;69.65;39.75;;;;;;;-9.57;77.31;102778.91;5115489;28;20039;-63
2021/12/09 07:49:53;;;;;;;60.33;36.53;;;;;;;-9.55;77.05;102785.81;5115566;28;20497;-64
2021/12/09 07:52:19;;;;;;;69.47;39.87;;;;;;;-9.61;77.40;102770.28;5097317;28;20028;-65
2021/12/09 07:54:45;;;;;;;59.97;35.10;;;;;;;-9.61;77.42;102772.88;5115339;28;20044;-64
2021/12/09 07:57:10;;;;;;;53.03;31.57;;;;;;;-9.62;77.43;102770.28;5115159;28;20036;-63
2021/12/09 07:59:36;;;;;;;50.17;32.77;;;;;;;-9.69;77.00;102757.31;5115594;28;20031;-74
2021/12/09 08:02:02;;;;;;;57.53;32.73;;;;;;;-9.44;77.04;102788.50;5081225;28;20126;-65
2021/12/09 08:04:28;;;;;;;53.13;33.47;;;;;;;-9.49;76.86;102766.97;5099015;28;20165;-72
2021/12/09 08:06:54;;;;;;;60.37;37.77;;;;;;;-9.44;76.96;102783.34;5116764;28;20066;-75
2021/12/09 08:09:19;;;;;;;61.83;34.27;;;;;;;-9.47;77.05;102778.16;5115953;28;20473;-63
2021/12/09 08:11:45;;;;;;;50.53;30.27;;;;;;;-9.38;76.82;102786.84;5097068;28;20931;-66
2021/12/09 08:14:12;;;;;;;53.50;34.63;;;;;;;-9.43;76.73;102772.19;5115506;28;20042;-63
2021/12/09 08:16:39;;;;;;;53.33;29.92;;;;;;;-9.31;76.71;102789.47;5115498;28;20035;-66
2021/12/09 08:19:08;;;;;;;53.60;31.27;;;;;;;-9.21;76.83;102791.28;5115528;28;20055;-65
2021/12/09 08:21:38;;;;;;;52.45;32.67;;;;;;;-9.18;76.48;102802.50;5096361;28;20501;-61
2021/12/09 08:24:09;;;;;;;55.83;32.38;;;;;;;-9.12;76.60;102797.38;5114664;28;20127;-65
2021/12/09 08:26:35;;;;;;;49.85;32.22;;;;;;;-9.12;76.05;102797.38;5096604;28;20032;-66
2021/12/09 08:29:04;;;;;;;39.22;24.35;;;;;;;-9.16;76.55;102793.03;5114844;28;20080;-63
2021/12/09 08:31:32;;;;;;;50.38;31.05;;;;;;;-9.11;76.56;102796.53;5114746;28;20063;-62
2021/12/09 08:33:59;;;;;;;70.63;42.80;;;;;;;-9.12;76.54;102792.22;5114780;28;20047;-67
2021/12/09 08:36:24;;;;;;;66.93;40.13;;;;;;;-9.13;76.50;102798.22;5114637;28;20097;-66
2021/12/09 08:38:50;;;;;;;40.37;23.23;;;;;;;-9.12;77.23;102799.09;5114649;28;20035;-66
2021/12/09 08:41:18;;;;;;;34.93;20.97;;;;;;;-9.10;77.75;102785.34;5114783;28;20486;-64
2021/12/09 08:43:43;;;;;;;62.78;40.03;;;;;;;-9.11;77.27;102783.63;5114792;28;20039;-63
2021/12/09 08:46:09;;;;;;;57.57;30.33;;;;;;;-9.10;76.96;102775.00;5114703;28;20084;-63
2021/12/09 08:48:35;;;;;;;47.77;27.33;;;;;;;-9.05;76.70;102777.63;5114408;28;20384;-64
2021/12/09 08:51:00;;;;;;;44.13;25.73;;;;;;;-9.02;76.75;102772.47;5114217;28;20435;-64
2021/12/09 08:53:26;;;;;;;49.27;30.33;;;;;;;-8.88;76.84;102798.41;5114382;28;20770;-64
2021/12/09 08:55:52;;;;;;;46.03;30.33;;;;;;;-8.88;76.63;102801.00;5114497;28;20019;-65
2021/12/09 08:58:18;;;;;;;47.42;29.00;;;;;;;-8.92;76.49;102788.91;5114162;28;20116;-65
2021/12/09 09:00:45;;;;;;;45.97;28.97;;;;;;;-8.79;76.21;102791.56;5114255;28;20048;-65
2021/12/09 09:03:11;;;;;;;42.80;28.40;;;;;;;-8.81;76.44;102780.38;5096751;28;20088;-64
2021/12/09 09:05:38;;;;;;;42.35;22.85;;;;;;;-8.85;76.33;102772.59;5115192;28;20102;-64
2021/12/09 09:08:05;;;;;;;35.33;22.02;;;;;;;-8.69;76.06;102787.31;5115237;28;20035;-61
2021/12/09 09:10:32;;;;;;;52.75;26.05;;;;;;;-8.66;76.72;102792.53;5114041;28;20031;-65
2021/12/09 09:12:59;;;;;;;35.33;21.23;;;;;;;-8.96;76.86;102740.66;5113810;28;20035;-65
2021/12/09 09:15:27;;;;;;;27.30;17.30;;;;;;;-8.94;76.03;102747.59;5113765;28;20047;-61
2021/12/09 09:17:53;;;;;;;28.60;21.70;;;;;;;-8.71;75.99;102768.38;5113561;28;20039;-65
2021/12/09 09:20:23;;;;;;;33.15;18.95;;;;;;;-8.57;76.33;102784.81;5113170;28;20105;-64
2021/12/09 09:22:49;;;;;;;37.35;21.88;;;;;;;-8.67;76.18;102762.41;5095474;28;20071;-64
2021/12/09 09:25:20;;;;;;;34.40;22.02;;;;;;;-8.69;75.74;102765.78;5115708;28;20038;-64
2021/12/09 09:27:47;;;;;;;35.72;21.23;;;;;;;-8.61;76.62;102780.50;5115578;28;20386;-62
2021/12/09 09:30:17;;;;;;;32.05;20.15;;;;;;;-8.68;75.99;102767.50;5097557;28;20057;-67
2021/12/09 09:32:48;;;;;;;42.20;23.63;;;;;;;-8.78;75.55;102721.00;5113986;28;20040;-63
2021/12/09 09:35:14;;;;;;;39.42;22.95;;;;;;;-8.40;75.50;102786.59;5113139;28;20042;-64
2021/12/09 09:37:40;;;;;;;59.17;35.60;;;;;;;-8.32;75.02;102803.00;5113378;28;20067;-64
2021/12/09 09:40:10;;;;;;;60.15;32.70;;;;;;;-8.48;75.05;102790.03;5113327;28;20085;-67
2021/12/09 09:45:04;;;;;;;70.32;39.60;;;;;;;-8.67;75.23;102798.56;5113115;28;20155;-65
2021/12/09 09:47:30;;;;;;;62.38;39.97;;;;;;;-8.82;75.10;102793.28;5112834;28;20104;-64
2021/12/09 09:49:58;;;;;;;68.63;40.67;;;;;;;-9.00;75.10;102777.66;5113142;28;20486;-66
2021/12/09 09:52:24;;;;;;;65.93;40.40;;;;;;;-9.03;74.69;102791.41;5113445;28;20474;-66
2021/12/09 09:54:51;;;;;;;67.53;38.10;;;;;;;-9.18;74.31;102776.69;5094219;28;20059;-64
2021/12/09 09:57:17;;;;;;;62.05;38.58;;;;;;;-9.12;74.50;102796.50;5112553;28;20438;-63
2021/12/09 10:00:11;;;;;;;61.25;35.85;;;;;;;-9.08;74.98;102799.13;5112750;28;20138;-67
2021/12/09 10:02:36;;;;;;;;;;;;;;;-9.03;74.56;102798.28;5113486;28;20529;-66
2021/12/09 10:05:05;;;;;;;60.20;34.43;;;;;;;-9.06;75.17;102802.56;5112840;28;19916;-66
2021/12/09 10:07:32;;;;;;;65.00;38.58;;;;;;;-9.16;74.47;102800.78;5112607;28;20050;-65
2021/12/09 10:09:57;;;;;;;63.58;39.85;;;;;;;-9.10;74.85;102812.88;5112019;28;20031;-64
2021/12/09 10:12:23;;;;;;;73.30;39.43;;;;;;;-9.25;74.70;102790.41;5115116;28;20053;-67
2021/12/09 10:14:54;;;;;;;73.60;40.17;;;;;;;-9.19;75.01;102813.66;5116412;28;20094;-63
2021/12/09 10:17:23;;;;;;;73.00;43.15;;;;;;;-9.27;75.28;102797.22;5113063;28;20599;-68
2021/12/09 10:19:57;;;;;;;68.40;41.88;;;;;;;-9.17;75.40;102819.72;5112543;28;20059;-66
2021/12/09 10:22:28;;;;;;;66.75;39.67;;;;;;;-9.09;75.40;102822.34;5112566;28;20478;-66
2021/12/09 10:24:54;;;;;;;65.03;39.53;;;;;;;-9.07;75.07;102806.00;5094155;28;20490;-68
2021/12/09 10:27:29;;;;;;;67.90;42.53;;;;;;;-9.12;75.32;102802.53;5112293;28;20043;-66
2021/12/09 10:30:14;;;;;;;62.65;36.53;;;;;;;-9.00;75.00;102821.53;5112385;28;20039;-68
2021/12/09 10:32:40;;;;;;;68.30;37.25;;;;;;;-8.99;74.62;102812.94;5112134;28;20032;-66
2021/12/09 10:35:20;;;;;;;63.25;37.83;;;;;;;-9.06;75.21;102800.00;5112314;28;20036;-72
2021/12/09 10:37:50;;;;;;;57.58;34.72;;;;;;;-9.01;75.38;102817.22;5094047;28;20131;-67
2021/12/09 10:40:20;;;;;;;62.08;34.50;;;;;;;-8.99;75.39;102823.25;5112402;28;20040;-70
2021/12/09 10:42:47;;;;;;;56.22;34.13;;;;;;;-9.00;75.14;102811.22;5112136;28;20070;-70
2021/12/09 10:45:40;;;;;;;54.47;33.08;;;;;;;-8.89;75.07;102809.59;5112333;28;20084;-68
2021/12/09 10:56:11;;;;;;;67.68;34.78;;;;;;;-9.00;75.82;102812.06;5112360;28;20053;-61
2021/12/09 10:58:43;;;;;;;75.47;34.22;;;;;;;-9.08;75.96;102806.88;5112260;28;20039;-67
2021/12/09 11:01:23;;;;;;;60.33;33.22;;;;;;;-9.02;76.00;102818.94;5094168;28;20229;-64
2021/12/09 11:03:53;;;;;;;63.55;33.03;;;;;;;-9.12;76.15;102797.38;5093871;28;20036;-76
2021/12/09 11:06:23;;;;;;;61.10;34.38;;;;;;;-9.01;76.39;102804.31;5112252;28;20043;-68
2021/12/09 11:08:53;;;;;;;57.28;33.17;;;;;;;-9.12;76.10;102791.34;5094372;28;20587;-77
2021/12/09 11:11:33;;;;;;;51.15;31.58;;;;;;;-8.98;76.01;102794.00;5113772;28;20084;-78
2021/12/09 11:14:00;;;;;;;51.40;29.75;;;;;;;-8.91;75.91;102800.97;5112639;28;20035;-71
2021/12/09 11:16:27;;;;;;;47.72;31.67;;;;;;;-8.78;75.90;102818.25;5112245;28;20447;-70
2021/12/09 11:22:11;;;;;;;57.78;29.98;;;;;;;-8.83;75.03;102814.78;5112198;28;20056;-69
2021/12/09 11:24:42;;;;;;;58.88;33.45;;;;;;;-8.83;75.17;102825.13;5111994;28;20574;-70
2021/12/09 11:27:10;;;;;;;47.28;34.63;;;;;;;-8.87;75.99;102828.53;5111908;28;20084;-69
2021/12/09 11:29:37;;;;;;;45.88;26.90;;;;;;;-8.74;75.75;102838.09;5111774;28;20054;-67